sensor_id;sensor_type;location;lat;lon;timestamp;P1;durP1;ratioP1;P2;durP2;ratioP2
20478;SDS011;10398;52.490;13.434;2022-09-19T00:00:39;5.47;;;0.90;;
20478;SDS011;10398;52.490;13.434;2022-09-19T00:03:06;5.30;;;0.97;;
20478;SDS011;10398;52.490;13.434;2022-09-19T00:05:32;2.87;;;0.90;;
20478;SDS011;10398;52.490;13.434;2022-09-19T00:07:58;2.30;;;0.77;;
20478;SDS011;10398;52.490;13.434;2022-09-19T00:10:23;5.03;;;1.00;;
20478;SDS011;10398;52.490;13.434;2022-09-19T00:12:51;3.27;;;0.93;;
20478;SDS011;10398;52.490;13.434;2022-09-19T00:15:16;3.93;;;1.00;;
20478;SDS011;10398;52.490;13.434;2022-09-19T00:17:42;1.30;;;0.70;;
20478;SDS011;10398;52.490;13.434;2022-09-19T00:20:07;3.90;;;0.93;;
20478;SDS011;10398;52.490;13.434;2022-09-19T00:22:33;5.77;;;1.07;;
20478;SDS011;10398;52.490;13.434;2022-09-19T00:24:59;5.70;;;0.90;;
20478;SDS011;10398;52.490;13.434;2022-09-19T00:27:25;1.37;;;0.70;;
20478;SDS011;10398;52.490;13.434;2022-09-19T00:29:52;2.93;;;0.87;;
20478;SDS011;10398;52.490;13.434;2022-09-19T00:32:19;6.53;;;0.90;;
20478;SDS011;10398;52.490;13.434;2022-09-19T00:34:47;3.30;;;0.93;;
20478;SDS011;10398;52.490;13.434;2022-09-19T00:37:14;7.00;;;1.00;;
20478;SDS011;10398;52.490;13.434;2022-09-19T00:39:41;3.33;;;0.93;;
20478;SDS011;10398;52.490;13.434;2022-09-19T00:42:14;2.83;;;1.00;;
20478;SDS011;10398;52.490;13.434;2022-09-19T00:47:09;3.37;;;0.87;;
20478;SDS011;10398;52.490;13.434;2022-09-19T00:49:38;3.07;;;0.93;;
20478;SDS011;10398;52.490;13.434;2022-09-19T00:52:10;2.97;;;0.90;;
20478;SDS011;10398;52.490;13.434;2022-09-19T00:55:03;3.30;;;1.00;;
20478;SDS011;10398;52.490;13.434;2022-09-19T00:57:34;3.47;;;0.80;;
20478;SDS011;10398;52.490;13.434;2022-09-19T01:00:05;3.90;;;1.50;;
20478;SDS011;10398;52.490;13.434;2022-09-19T01:02:32;6.53;;;1.30;;
20478;SDS011;10398;52.490;13.434;2022-09-19T01:04:58;3.10;;;1.37;;
20478;SDS011;10398;52.490;13.434;2022-09-19T01:18:23;4.07;;;1.40;;
20478;SDS011;10398;52.490;13.434;2022-09-19T01:20:57;3.60;;;1.43;;
20478;SDS011;10398;52.490;13.434;2022-09-19T01:26:54;4.13;;;1.20;;
20478;SDS011;10398;52.490;13.434;2022-09-19T01:29:42;7.43;;;1.30;;
20478;SDS011;10398;52.490;13.434;2022-09-19T01:32:11;3.87;;;1.30;;
20478;SDS011;10398;52.490;13.434;2022-09-19T01:34:44;2.97;;;1.40;;
20478;SDS011;10398;52.490;13.434;2022-09-19T01:37:19;5.23;;;1.27;;
20478;SDS011;10398;52.490;13.434;2022-09-19T01:39:52;6.33;;;1.30;;
20478;SDS011;10398;52.490;13.434;2022-09-19T01:42:21;2.50;;;0.93;;
20478;SDS011;10398;52.490;13.434;2022-09-19T01:44:48;4.03;;;1.20;;
20478;SDS011;10398;52.490;13.434;2022-09-19T02:01:34;4.57;;;1.40;;
20478;SDS011;10398;52.490;13.434;2022-09-19T02:04:05;4.23;;;1.13;;
20478;SDS011;10398;52.490;13.434;2022-09-19T02:06:43;2.33;;;1.20;;
20478;SDS011;10398;52.490;13.434;2022-09-19T02:12:02;3.97;;;1.63;;
20478;SDS011;10398;52.490;13.434;2022-09-19T02:14:31;2.40;;;1.20;;
20478;SDS011;10398;52.490;13.434;2022-09-19T02:17:03;1.80;;;1.30;;
20478;SDS011;10398;52.490;13.434;2022-09-19T02:19:33;6.17;;;1.90;;
20478;SDS011;10398;52.490;13.434;2022-09-19T02:22:03;4.07;;;1.60;;
20478;SDS011;10398;52.490;13.434;2022-09-19T02:24:34;2.83;;;1.50;;
20478;SDS011;10398;52.490;13.434;2022-09-19T02:27:07;3.27;;;1.27;;
20478;SDS011;10398;52.490;13.434;2022-09-19T02:29:38;2.97;;;1.30;;
20478;SDS011;10398;52.490;13.434;2022-09-19T02:32:08;5.67;;;1.40;;
20478;SDS011;10398;52.490;13.434;2022-09-19T02:34:34;3.50;;;1.50;;
20478;SDS011;10398;52.490;13.434;2022-09-19T02:37:17;4.10;;;1.77;;
20478;SDS011;10398;52.490;13.434;2022-09-19T02:42:37;5.10;;;1.50;;
20478;SDS011;10398;52.490;13.434;2022-09-19T02:45:15;3.30;;;1.30;;
20478;SDS011;10398;52.490;13.434;2022-09-19T02:47:48;3.23;;;1.50;;
20478;SDS011;10398;52.490;13.434;2022-09-19T02:52:57;3.30;;;1.50;;
20478;SDS011;10398;52.490;13.434;2022-09-19T02:55:26;2.70;;;1.93;;
20478;SDS011;10398;52.490;13.434;2022-09-19T02:57:57;2.80;;;1.77;;
20478;SDS011;10398;52.490;13.434;2022-09-19T03:00:27;4.03;;;2.00;;
20478;SDS011;10398;52.490;13.434;2022-09-19T03:03:06;5.07;;;1.93;;
20478;SDS011;10398;52.490;13.434;2022-09-19T03:05:56;3.57;;;1.83;;
20478;SDS011;10398;52.490;13.434;2022-09-19T03:08:25;2.70;;;1.97;;
20478;SDS011;10398;52.490;13.434;2022-09-19T03:10:54;4.13;;;1.87;;
20478;SDS011;10398;52.490;13.434;2022-09-19T03:13:22;3.57;;;1.70;;
20478;SDS011;10398;52.490;13.434;2022-09-19T03:15:51;3.37;;;1.70;;
20478;SDS011;10398;52.490;13.434;2022-09-19T03:18:31;6.13;;;2.23;;
20478;SDS011;10398;52.490;13.434;2022-09-19T03:20:58;3.87;;;2.47;;
20478;SDS011;10398;52.490;13.434;2022-09-19T03:26:11;4.40;;;2.30;;
20478;SDS011;10398;52.490;13.434;2022-09-19T03:28:38;6.97;;;2.00;;
20478;SDS011;10398;52.490;13.434;2022-09-19T03:31:04;3.73;;;2.50;;
20478;SDS011;10398;52.490;13.434;2022-09-19T03:33:31;8.17;;;2.43;;
20478;SDS011;10398;52.490;13.434;2022-09-19T03:35:57;4.90;;;2.33;;
20478;SDS011;10398;52.490;13.434;2022-09-19T03:38:25;7.57;;;2.93;;
20478;SDS011;10398;52.490;13.434;2022-09-19T03:40:51;3.07;;;2.03;;
20478;SDS011;10398;52.490;13.434;2022-09-19T03:43:17;4.60;;;2.80;;
20478;SDS011;10398;52.490;13.434;2022-09-19T03:45:45;6.40;;;2.53;;
20478;SDS011;10398;52.490;13.434;2022-09-19T03:48:10;5.10;;;2.00;;
20478;SDS011;10398;52.490;13.434;2022-09-19T03:50:36;5.80;;;2.57;;
20478;SDS011;10398;52.490;13.434;2022-09-19T03:53:01;4.40;;;2.20;;
20478;SDS011;10398;52.490;13.434;2022-09-19T03:55:27;5.57;;;2.60;;
20478;SDS011;10398;52.490;13.434;2022-09-19T03:57:53;5.90;;;2.73;;
20478;SDS011;10398;52.490;13.434;2022-09-19T04:00:19;11.63;;;3.23;;
20478;SDS011;10398;52.490;13.434;2022-09-19T04:02:44;6.10;;;3.13;;
20478;SDS011;10398;52.490;13.434;2022-09-19T04:05:10;5.70;;;2.80;;
20478;SDS011;10398;52.490;13.434;2022-09-19T04:07:37;5.80;;;2.90;;
20478;SDS011;10398;52.490;13.434;2022-09-19T04:10:04;10.57;;;3.03;;
20478;SDS011;10398;52.490;13.434;2022-09-19T04:12:31;8.73;;;2.80;;
20478;SDS011;10398;52.490;13.434;2022-09-19T04:14:58;6.80;;;2.90;;
20478;SDS011;10398;52.490;13.434;2022-09-19T04:17:25;5.20;;;2.40;;
20478;SDS011;10398;52.490;13.434;2022-09-19T04:19:53;4.80;;;2.40;;
20478;SDS011;10398;52.490;13.434;2022-09-19T04:22:19;4.33;;;2.53;;
20478;SDS011;10398;52.490;13.434;2022-09-19T04:24:46;4.53;;;2.53;;
20478;SDS011;10398;52.490;13.434;2022-09-19T04:27:12;6.20;;;2.13;;
20478;SDS011;10398;52.490;13.434;2022-09-19T04:29:39;3.90;;;2.57;;
20478;SDS011;10398;52.490;13.434;2022-09-19T04:32:05;5.10;;;2.10;;
20478;SDS011;10398;52.490;13.434;2022-09-19T04:36:58;3.10;;;2.10;;
20478;SDS011;10398;52.490;13.434;2022-09-19T04:39:27;3.90;;;1.90;;
20478;SDS011;10398;52.490;13.434;2022-09-19T04:41:53;3.30;;;2.00;;
20478;SDS011;10398;52.490;13.434;2022-09-19T04:44:19;5.63;;;2.37;;
20478;SDS011;10398;52.490;13.434;2022-09-19T04:46:53;5.40;;;2.13;;
20478;SDS011;10398;52.490;13.434;2022-09-19T04:49:19;4.67;;;1.80;;
20478;SDS011;10398;52.490;13.434;2022-09-19T04:51:45;4.20;;;2.20;;
20478;SDS011;10398;52.490;13.434;2022-09-19T04:54:11;4.70;;;2.43;;
20478;SDS011;10398;52.490;13.434;2022-09-19T04:56:37;7.63;;;2.50;;
20478;SDS011;10398;52.490;13.434;2022-09-19T04:59:03;5.70;;;2.53;;
20478;SDS011;10398;52.490;13.434;2022-09-19T05:01:29;4.60;;;2.40;;
20478;SDS011;10398;52.490;13.434;2022-09-19T05:03:55;4.03;;;2.13;;
20478;SDS011;10398;52.490;13.434;2022-09-19T05:06:21;4.63;;;2.03;;
20478;SDS011;10398;52.490;13.434;2022-09-19T05:08:48;4.93;;;2.07;;
20478;SDS011;10398;52.490;13.434;2022-09-19T05:11:15;3.67;;;1.83;;
20478;SDS011;10398;52.490;13.434;2022-09-19T05:13:43;8.80;;;2.10;;
20478;SDS011;10398;52.490;13.434;2022-09-19T05:16:09;3.17;;;2.10;;
20478;SDS011;10398;52.490;13.434;2022-09-19T05:18:35;6.47;;;2.30;;
20478;SDS011;10398;52.490;13.434;2022-09-19T05:21:03;5.50;;;1.90;;
20478;SDS011;10398;52.490;13.434;2022-09-19T05:23:31;5.60;;;2.40;;
20478;SDS011;10398;52.490;13.434;2022-09-19T05:26:01;6.67;;;2.43;;
20478;SDS011;10398;52.490;13.434;2022-09-19T05:28:30;5.10;;;2.30;;
20478;SDS011;10398;52.490;13.434;2022-09-19T05:30:56;4.20;;;2.33;;
20478;SDS011;10398;52.490;13.434;2022-09-19T05:33:23;3.83;;;1.90;;
20478;SDS011;10398;52.490;13.434;2022-09-19T05:35:51;5.90;;;2.40;;
20478;SDS011;10398;52.490;13.434;2022-09-19T05:38:18;6.27;;;2.23;;
20478;SDS011;10398;52.490;13.434;2022-09-19T05:40:44;3.47;;;2.13;;
20478;SDS011;10398;52.490;13.434;2022-09-19T05:43:09;4.77;;;2.10;;
20478;SDS011;10398;52.490;13.434;2022-09-19T05:45:35;4.90;;;2.50;;
20478;SDS011;10398;52.490;13.434;2022-09-19T05:48:03;6.67;;;2.17;;
20478;SDS011;10398;52.490;13.434;2022-09-19T05:50:31;5.90;;;2.57;;
20478;SDS011;10398;52.490;13.434;2022-09-19T05:52:57;3.57;;;2.03;;
20478;SDS011;10398;52.490;13.434;2022-09-19T05:55:41;5.83;;;2.20;;
20478;SDS011;10398;52.490;13.434;2022-09-19T05:58:07;4.63;;;2.70;;
20478;SDS011;10398;52.490;13.434;2022-09-19T06:00:35;5.70;;;2.27;;
20478;SDS011;10398;52.490;13.434;2022-09-19T06:03:03;5.47;;;2.00;;
20478;SDS011;10398;52.490;13.434;2022-09-19T06:05:30;4.60;;;1.93;;
20478;SDS011;10398;52.490;13.434;2022-09-19T06:08:02;4.67;;;2.00;;
20478;SDS011;10398;52.490;13.434;2022-09-19T06:10:32;7.43;;;2.20;;
20478;SDS011;10398;52.490;13.434;2022-09-19T06:12:59;7.13;;;2.17;;
20478;SDS011;10398;52.490;13.434;2022-09-19T06:15:25;7.73;;;2.00;;
20478;SDS011;10398;52.490;13.434;2022-09-19T06:17:54;7.17;;;2.17;;
20478;SDS011;10398;52.490;13.434;2022-09-19T06:20:20;4.10;;;1.60;;
20478;SDS011;10398;52.490;13.434;2022-09-19T06:22:46;4.60;;;1.53;;
20478;SDS011;10398;52.490;13.434;2022-09-19T06:25:12;5.20;;;2.00;;
20478;SDS011;10398;52.490;13.434;2022-09-19T06:27:39;4.20;;;2.13;;
20478;SDS011;10398;52.490;13.434;2022-09-19T06:30:06;9.27;;;1.67;;
20478;SDS011;10398;52.490;13.434;2022-09-19T06:32:33;3.20;;;1.80;;
20478;SDS011;10398;52.490;13.434;2022-09-19T06:35:01;5.33;;;1.80;;
20478;SDS011;10398;52.490;13.434;2022-09-19T06:37:27;4.13;;;1.80;;
20478;SDS011;10398;52.490;13.434;2022-09-19T06:39:53;4.97;;;1.90;;
20478;SDS011;10398;52.490;13.434;2022-09-19T06:42:19;5.73;;;1.60;;
20478;SDS011;10398;52.490;13.434;2022-09-19T06:44:44;4.63;;;1.33;;
20478;SDS011;10398;52.490;13.434;2022-09-19T06:47:10;6.47;;;1.70;;
20478;SDS011;10398;52.490;13.434;2022-09-19T06:49:37;3.03;;;1.23;;
20478;SDS011;10398;52.490;13.434;2022-09-19T06:52:03;3.67;;;1.77;;
20478;SDS011;10398;52.490;13.434;2022-09-19T06:54:29;3.30;;;1.70;;
20478;SDS011;10398;52.490;13.434;2022-09-19T06:56:54;5.80;;;2.87;;
20478;SDS011;10398;52.490;13.434;2022-09-19T06:59:20;4.23;;;2.13;;
20478;SDS011;10398;52.490;13.434;2022-09-19T07:01:46;2.60;;;1.63;;
20478;SDS011;10398;52.490;13.434;2022-09-19T07:04:13;7.10;;;1.80;;
20478;SDS011;10398;52.490;13.434;2022-09-19T07:06:38;6.43;;;2.30;;
20478;SDS011;10398;52.490;13.434;2022-09-19T07:09:04;4.57;;;2.17;;
20478;SDS011;10398;52.490;13.434;2022-09-19T07:11:33;5.13;;;2.40;;
20478;SDS011;10398;52.490;13.434;2022-09-19T07:14:01;6.23;;;1.93;;
20478;SDS011;10398;52.490;13.434;2022-09-19T07:16:28;5.47;;;1.53;;
20478;SDS011;10398;52.490;13.434;2022-09-19T07:18:54;4.23;;;1.57;;
20478;SDS011;10398;52.490;13.434;2022-09-19T07:21:19;3.67;;;1.30;;
20478;SDS011;10398;52.490;13.434;2022-09-19T07:23:45;5.23;;;1.43;;
20478;SDS011;10398;52.490;13.434;2022-09-19T07:26:13;6.90;;;1.83;;
20478;SDS011;10398;52.490;13.434;2022-09-19T07:28:39;6.10;;;1.73;;
20478;SDS011;10398;52.490;13.434;2022-09-19T07:31:04;8.57;;;1.30;;
20478;SDS011;10398;52.490;13.434;2022-09-19T07:33:30;3.37;;;1.43;;
20478;SDS011;10398;52.490;13.434;2022-09-19T07:35:55;5.23;;;1.37;;
20478;SDS011;10398;52.490;13.434;2022-09-19T07:38:22;2.50;;;1.30;;
20478;SDS011;10398;52.490;13.434;2022-09-19T07:40:49;3.10;;;1.30;;
20478;SDS011;10398;52.490;13.434;2022-09-19T07:43:15;2.80;;;0.80;;
20478;SDS011;10398;52.490;13.434;2022-09-19T07:45:42;5.57;;;1.53;;
20478;SDS011;10398;52.490;13.434;2022-09-19T07:48:10;4.77;;;1.70;;
20478;SDS011;10398;52.490;13.434;2022-09-19T07:50:35;2.73;;;1.57;;
20478;SDS011;10398;52.490;13.434;2022-09-19T07:55:27;2.87;;;1.07;;
20478;SDS011;10398;52.490;13.434;2022-09-19T07:57:55;2.50;;;0.80;;
20478;SDS011;10398;52.490;13.434;2022-09-19T08:00:23;5.33;;;0.97;;
20478;SDS011;10398;52.490;13.434;2022-09-19T08:02:54;4.00;;;1.10;;
20478;SDS011;10398;52.490;13.434;2022-09-19T08:05:37;3.20;;;1.60;;
20478;SDS011;10398;52.490;13.434;2022-09-19T08:08:05;2.93;;;1.20;;
20478;SDS011;10398;52.490;13.434;2022-09-19T08:10:31;3.33;;;1.03;;
20478;SDS011;10398;52.490;13.434;2022-09-19T08:12:58;1.60;;;0.93;;
20478;SDS011;10398;52.490;13.434;2022-09-19T08:15:25;2.80;;;1.20;;
20478;SDS011;10398;52.490;13.434;2022-09-19T08:17:57;3.07;;;1.23;;
20478;SDS011;10398;52.490;13.434;2022-09-19T08:20:24;3.97;;;1.60;;
20478;SDS011;10398;52.490;13.434;2022-09-19T08:22:57;2.73;;;1.40;;
20478;SDS011;10398;52.490;13.434;2022-09-19T08:25:25;6.70;;;1.47;;
20478;SDS011;10398;52.490;13.434;2022-09-19T08:27:52;4.10;;;0.90;;
20478;SDS011;10398;52.490;13.434;2022-09-19T08:30:18;6.87;;;1.07;;
20478;SDS011;10398;52.490;13.434;2022-09-19T08:32:45;8.43;;;1.30;;
20478;SDS011;10398;52.490;13.434;2022-09-19T08:35:11;3.30;;;0.90;;
20478;SDS011;10398;52.490;13.434;2022-09-19T08:37:36;4.67;;;1.93;;
20478;SDS011;10398;52.490;13.434;2022-09-19T08:40:02;8.20;;;1.97;;
20478;SDS011;10398;52.490;13.434;2022-09-19T08:45:38;2.40;;;0.80;;
20478;SDS011;10398;52.490;13.434;2022-09-19T08:48:51;2.70;;;0.93;;
20478;SDS011;10398;52.490;13.434;2022-09-19T08:54:11;1.13;;;0.80;;
20478;SDS011;10398;52.490;13.434;2022-09-19T08:56:40;1.80;;;0.70;;
20478;SDS011;10398;52.490;13.434;2022-09-19T08:59:12;2.33;;;1.10;;
20478;SDS011;10398;52.490;13.434;2022-09-19T09:01:41;3.30;;;1.30;;
20478;SDS011;10398;52.490;13.434;2022-09-19T09:04:26;1.83;;;0.80;;
20478;SDS011;10398;52.490;13.434;2022-09-19T09:09:49;1.10;;;0.80;;
20478;SDS011;10398;52.490;13.434;2022-09-19T09:17:32;2.07;;;0.67;;
20478;SDS011;10398;52.490;13.434;2022-09-19T09:20:46;1.90;;;0.50;;
20478;SDS011;10398;52.490;13.434;2022-09-19T09:23:11;2.23;;;0.83;;
20478;SDS011;10398;52.490;13.434;2022-09-19T09:25:42;2.83;;;0.80;;
20478;SDS011;10398;52.490;13.434;2022-09-19T09:28:21;1.50;;;0.70;;
20478;SDS011;10398;52.490;13.434;2022-09-19T09:30:51;1.13;;;0.63;;
20478;SDS011;10398;52.490;13.434;2022-09-19T09:33:25;3.57;;;0.90;;
20478;SDS011;10398;52.490;13.434;2022-09-19T09:35:58;1.73;;;0.63;;
20478;SDS011;10398;52.490;13.434;2022-09-19T09:38:32;2.00;;;0.77;;
20478;SDS011;10398;52.490;13.434;2022-09-19T09:41:07;1.53;;;0.40;;
20478;SDS011;10398;52.490;13.434;2022-09-19T09:44:00;3.70;;;1.43;;
20478;SDS011;10398;52.490;13.434;2022-09-19T09:49:31;5.07;;;0.97;;
20478;SDS011;10398;52.490;13.434;2022-09-19T09:54:55;1.83;;;0.63;;
20478;SDS011;10398;52.490;13.434;2022-09-19T09:57:42;0.67;;;0.40;;
20478;SDS011;10398;52.490;13.434;2022-09-19T10:00:18;4.67;;;0.70;;
20478;SDS011;10398;52.490;13.434;2022-09-19T10:11:17;2.00;;;0.67;;
20478;SDS011;10398;52.490;13.434;2022-09-19T10:13:49;1.57;;;0.57;;
20478;SDS011;10398;52.490;13.434;2022-09-19T10:16:23;1.40;;;0.50;;
20478;SDS011;10398;52.490;13.434;2022-09-19T10:18:51;5.53;;;1.83;;
20478;SDS011;10398;52.490;13.434;2022-09-19T10:21:20;5.87;;;1.60;;
20478;SDS011;10398;52.490;13.434;2022-09-19T10:23:46;15.33;;;4.20;;
20478;SDS011;10398;52.490;13.434;2022-09-19T10:26:13;5.23;;;1.80;;
20478;SDS011;10398;52.490;13.434;2022-09-19T10:28:45;2.97;;;0.60;;
20478;SDS011;10398;52.490;13.434;2022-09-19T10:31:29;2.13;;;0.83;;
20478;SDS011;10398;52.490;13.434;2022-09-19T10:34:04;1.13;;;0.73;;
20478;SDS011;10398;52.490;13.434;2022-09-19T10:36:47;1.67;;;0.73;;
20478;SDS011;10398;52.490;13.434;2022-09-19T10:39:14;5.83;;;2.37;;
20478;SDS011;10398;52.490;13.434;2022-09-19T10:41:42;4.07;;;1.03;;
20478;SDS011;10398;52.490;13.434;2022-09-19T10:44:21;0.70;;;0.50;;
20478;SDS011;10398;52.490;13.434;2022-09-19T10:46:50;1.40;;;0.77;;
20478;SDS011;10398;52.490;13.434;2022-09-19T10:49:25;2.00;;;0.77;;
20478;SDS011;10398;52.490;13.434;2022-09-19T10:51:53;1.80;;;1.00;;
20478;SDS011;10398;52.490;13.434;2022-09-19T10:54:34;1.93;;;0.40;;
20478;SDS011;10398;52.490;13.434;2022-09-19T10:57:05;2.00;;;0.80;;
20478;SDS011;10398;52.490;13.434;2022-09-19T10:59:51;1.30;;;0.50;;
20478;SDS011;10398;52.490;13.434;2022-09-19T11:02:23;1.97;;;0.50;;
20478;SDS011;10398;52.490;13.434;2022-09-19T11:07:32;1.87;;;0.97;;
20478;SDS011;10398;52.490;13.434;2022-09-19T11:13:11;0.40;;;0.20;;
20478;SDS011;10398;52.490;13.434;2022-09-19T11:16:24;1.23;;;0.40;;
20478;SDS011;10398;52.490;13.434;2022-09-19T11:18:45;1.60;;;0.70;;
20478;SDS011;10398;52.490;13.434;2022-09-19T11:29:47;2.87;;;1.20;;
20478;SDS011;10398;52.490;13.434;2022-09-19T11:35:39;1.30;;;1.00;;
20478;SDS011;10398;52.490;13.434;2022-09-19T11:38:34;2.43;;;1.10;;
20478;SDS011;10398;52.490;13.434;2022-09-19T12:03:43;3.47;;;1.37;;
20478;SDS011;10398;52.490;13.434;2022-09-19T12:06:51;2.10;;;0.90;;
20478;SDS011;10398;52.490;13.434;2022-09-19T12:09:45;2.17;;;0.70;;
20478;SDS011;10398;52.490;13.434;2022-09-19T12:12:35;3.03;;;0.80;;
20478;SDS011;10398;52.490;13.434;2022-09-19T12:17:41;6.93;;;1.10;;
20478;SDS011;10398;52.490;13.434;2022-09-19T12:20:20;6.77;;;1.00;;
20478;SDS011;10398;52.490;13.434;2022-09-19T12:26:07;2.33;;;0.80;;
20478;SDS011;10398;52.490;13.434;2022-09-19T12:28:40;1.77;;;0.40;;
20478;SDS011;10398;52.490;13.434;2022-09-19T12:31:12;2.67;;;1.10;;
20478;SDS011;10398;52.490;13.434;2022-09-19T12:33:44;1.87;;;0.63;;
20478;SDS011;10398;52.490;13.434;2022-09-19T12:36:21;1.13;;;0.80;;
20478;SDS011;10398;52.490;13.434;2022-09-19T12:39:00;3.27;;;0.63;;
20478;SDS011;10398;52.490;13.434;2022-09-19T12:41:39;2.70;;;0.90;;
20478;SDS011;10398;52.490;13.434;2022-09-19T12:44:52;1.87;;;0.80;;
20478;SDS011;10398;52.490;13.434;2022-09-19T12:47:43;4.70;;;1.47;;
20478;SDS011;10398;52.490;13.434;2022-09-19T12:50:27;3.13;;;0.93;;
20478;SDS011;10398;52.490;13.434;2022-09-19T12:55:57;2.80;;;1.00;;
20478;SDS011;10398;52.490;13.434;2022-09-19T13:04:33;4.47;;;1.43;;
20478;SDS011;10398;52.490;13.434;2022-09-19T13:09:41;7.83;;;1.60;;
20478;SDS011;10398;52.490;13.434;2022-09-19T13:12:19;4.80;;;1.30;;
20478;SDS011;10398;52.490;13.434;2022-09-19T13:14:54;5.47;;;1.93;;
20478;SDS011;10398;52.490;13.434;2022-09-19T13:17:23;6.80;;;2.07;;
20478;SDS011;10398;52.490;13.434;2022-09-19T13:20:19;6.30;;;2.30;;
20478;SDS011;10398;52.490;13.434;2022-09-19T13:23:09;4.47;;;1.20;;
20478;SDS011;10398;52.490;13.434;2022-09-19T13:28:45;5.13;;;1.47;;
20478;SDS011;10398;52.490;13.434;2022-09-19T13:31:13;2.37;;;1.20;;
20478;SDS011;10398;52.490;13.434;2022-09-19T13:36:10;4.43;;;1.20;;
20478;SDS011;10398;52.490;13.434;2022-09-19T13:38:39;6.37;;;1.90;;
20478;SDS011;10398;52.490;13.434;2022-09-19T13:41:13;3.90;;;1.67;;
20478;SDS011;10398;52.490;13.434;2022-09-19T13:49:26;3.50;;;1.60;;
20478;SDS011;10398;52.490;13.434;2022-09-19T13:52:07;2.47;;;1.20;;
20478;SDS011;10398;52.490;13.434;2022-09-19T13:57:39;3.80;;;1.43;;
20478;SDS011;10398;52.490;13.434;2022-09-19T14:00:08;8.40;;;2.83;;
20478;SDS011;10398;52.490;13.434;2022-09-19T14:02:40;6.43;;;2.47;;
20478;SDS011;10398;52.490;13.434;2022-09-19T14:05:17;5.93;;;1.80;;
20478;SDS011;10398;52.490;13.434;2022-09-19T14:10:29;4.37;;;1.70;;
20478;SDS011;10398;52.490;13.434;2022-09-19T14:13:30;4.47;;;1.60;;
20478;SDS011;10398;52.490;13.434;2022-09-19T14:18:29;5.07;;;1.87;;
20478;SDS011;10398;52.490;13.434;2022-09-19T14:21:01;5.07;;;2.13;;
20478;SDS011;10398;52.490;13.434;2022-09-19T14:24:01;4.93;;;2.07;;
20478;SDS011;10398;52.490;13.434;2022-09-19T14:48:31;5.53;;;2.00;;
20478;SDS011;10398;52.490;13.434;2022-09-19T14:53:52;4.23;;;1.87;;
20478;SDS011;10398;52.490;13.434;2022-09-19T14:56:25;4.20;;;1.87;;
20478;SDS011;10398;52.490;13.434;2022-09-19T14:58:51;1.60;;;1.10;;
20478;SDS011;10398;52.490;13.434;2022-09-19T15:01:35;2.90;;;1.10;;
20478;SDS011;10398;52.490;13.434;2022-09-19T15:04:08;2.70;;;1.20;;
20478;SDS011;10398;52.490;13.434;2022-09-19T15:06:45;2.83;;;0.90;;
20478;SDS011;10398;52.490;13.434;2022-09-19T15:12:10;1.90;;;0.90;;
20478;SDS011;10398;52.490;13.434;2022-09-19T15:14:45;1.83;;;0.90;;
20478;SDS011;10398;52.490;13.434;2022-09-19T15:17:16;3.63;;;1.10;;
20478;SDS011;10398;52.490;13.434;2022-09-19T15:19:51;1.73;;;0.80;;
20478;SDS011;10398;52.490;13.434;2022-09-19T15:22:25;3.07;;;1.10;;
20478;SDS011;10398;52.490;13.434;2022-09-19T15:24:52;1.60;;;0.83;;
20478;SDS011;10398;52.490;13.434;2022-09-19T15:27:25;1.50;;;0.67;;
20478;SDS011;10398;52.490;13.434;2022-09-19T15:29:52;3.17;;;0.90;;
20478;SDS011;10398;52.490;13.434;2022-09-19T15:32:28;3.10;;;1.00;;
20478;SDS011;10398;52.490;13.434;2022-09-19T15:35:04;2.90;;;0.90;;
20478;SDS011;10398;52.490;13.434;2022-09-19T15:37:43;2.57;;;1.20;;
20478;SDS011;10398;52.490;13.434;2022-09-19T15:40:22;3.43;;;1.00;;
20478;SDS011;10398;52.490;13.434;2022-09-19T15:42:49;2.53;;;1.50;;
20478;SDS011;10398;52.490;13.434;2022-09-19T15:50:41;4.07;;;1.30;;
20478;SDS011;10398;52.490;13.434;2022-09-19T15:53:15;2.87;;;1.00;;
20478;SDS011;10398;52.490;13.434;2022-09-19T15:55:54;1.60;;;0.90;;
20478;SDS011;10398;52.490;13.434;2022-09-19T15:58:23;3.07;;;1.00;;
20478;SDS011;10398;52.490;13.434;2022-09-19T16:00:58;2.47;;;1.00;;
20478;SDS011;10398;52.490;13.434;2022-09-19T16:03:24;1.57;;;0.80;;
20478;SDS011;10398;52.490;13.434;2022-09-19T16:06:04;1.30;;;0.90;;
20478;SDS011;10398;52.490;13.434;2022-09-19T16:08:51;1.87;;;1.27;;
20478;SDS011;10398;52.490;13.434;2022-09-19T16:11:30;3.33;;;1.20;;
20478;SDS011;10398;52.490;13.434;2022-09-19T16:14:05;2.20;;;1.60;;
20478;SDS011;10398;52.490;13.434;2022-09-19T16:16:38;2.30;;;1.00;;
20478;SDS011;10398;52.490;13.434;2022-09-19T16:19:03;4.20;;;1.10;;
20478;SDS011;10398;52.490;13.434;2022-09-19T16:21:37;3.43;;;1.30;;
20478;SDS011;10398;52.490;13.434;2022-09-19T16:24:08;4.30;;;1.50;;
20478;SDS011;10398;52.490;13.434;2022-09-19T16:26:38;2.87;;;1.20;;
20478;SDS011;10398;52.490;13.434;2022-09-19T16:29:04;6.50;;;2.00;;
20478;SDS011;10398;52.490;13.434;2022-09-19T16:31:34;12.13;;;4.33;;
20478;SDS011;10398;52.490;13.434;2022-09-19T16:34:02;9.77;;;3.10;;
20478;SDS011;10398;52.490;13.434;2022-09-19T16:36:40;3.53;;;1.30;;
20478;SDS011;10398;52.490;13.434;2022-09-19T16:46:54;5.57;;;1.30;;
20478;SDS011;10398;52.490;13.434;2022-09-19T16:49:24;5.23;;;1.87;;
20478;SDS011;10398;52.490;13.434;2022-09-19T16:51:50;4.33;;;1.43;;
20478;SDS011;10398;52.490;13.434;2022-09-19T16:54:17;3.87;;;1.23;;
20478;SDS011;10398;52.490;13.434;2022-09-19T16:56:44;3.47;;;1.27;;
20478;SDS011;10398;52.490;13.434;2022-09-19T16:59:11;5.83;;;1.60;;
20478;SDS011;10398;52.490;13.434;2022-09-19T17:01:45;2.07;;;1.17;;
20478;SDS011;10398;52.490;13.434;2022-09-19T17:04:12;3.90;;;1.10;;
20478;SDS011;10398;52.490;13.434;2022-09-19T17:06:41;4.70;;;1.57;;
20478;SDS011;10398;52.490;13.434;2022-09-19T17:09:06;3.53;;;0.93;;
20478;SDS011;10398;52.490;13.434;2022-09-19T17:11:32;2.03;;;0.90;;
20478;SDS011;10398;52.490;13.434;2022-09-19T17:13:58;5.33;;;1.43;;
20478;SDS011;10398;52.490;13.434;2022-09-19T17:16:23;3.37;;;1.30;;
20478;SDS011;10398;52.490;13.434;2022-09-19T17:18:49;2.93;;;1.23;;
20478;SDS011;10398;52.490;13.434;2022-09-19T17:21:14;5.07;;;1.27;;
20478;SDS011;10398;52.490;13.434;2022-09-19T17:23:41;3.80;;;1.27;;
20478;SDS011;10398;52.490;13.434;2022-09-19T17:26:07;6.57;;;1.03;;
20478;SDS011;10398;52.490;13.434;2022-09-19T17:28:32;3.97;;;1.10;;
20478;SDS011;10398;52.490;13.434;2022-09-19T17:31:00;5.10;;;1.50;;
20478;SDS011;10398;52.490;13.434;2022-09-19T17:33:27;2.07;;;1.00;;
20478;SDS011;10398;52.490;13.434;2022-09-19T17:35:53;4.93;;;1.80;;
20478;SDS011;10398;52.490;13.434;2022-09-19T17:38:25;2.63;;;0.70;;
20478;SDS011;10398;52.490;13.434;2022-09-19T17:40:51;2.10;;;1.07;;
20478;SDS011;10398;52.490;13.434;2022-09-19T17:43:18;5.07;;;1.10;;
20478;SDS011;10398;52.490;13.434;2022-09-19T17:45:46;1.87;;;0.90;;
20478;SDS011;10398;52.490;13.434;2022-09-19T17:48:26;3.83;;;1.20;;
20478;SDS011;10398;52.490;13.434;2022-09-19T17:50:52;2.50;;;1.03;;
20478;SDS011;10398;52.490;13.434;2022-09-19T17:53:18;4.77;;;0.93;;
20478;SDS011;10398;52.490;13.434;2022-09-19T17:55:43;5.83;;;1.10;;
20478;SDS011;10398;52.490;13.434;2022-09-19T17:58:09;3.27;;;1.63;;
20478;SDS011;10398;52.490;13.434;2022-09-19T18:00:36;3.77;;;1.20;;
20478;SDS011;10398;52.490;13.434;2022-09-19T18:03:02;3.93;;;1.10;;
20478;SDS011;10398;52.490;13.434;2022-09-19T18:06:04;3.63;;;1.00;;
20478;SDS011;10398;52.490;13.434;2022-09-19T18:08:29;3.57;;;1.20;;